< < Back
Terminal Aerodrome Forecast


Current Version              Previous Versions:   1  2  3  4  5  6  7  8  9  

Terminal Aerodrome Forecast

929
FTUS42 KTAE 302300
TAFABY
TAF
KABY 302337Z 3100/3124 VRB04KT P6SM SCT050
     FM311800 35006KT P6SM BKN050 BKN250=

Latest METAR

080
SAUS70 KWBC 310300 RRG
MTRABY
METAR KABY 310253Z 00000KT 10SM CLR 22/17 A3002 RMK AO2 SLP163 T02170172
51007


USA.gov is the U.S. government's official web portal to all federal, state and local government web resources and services.